createdAt,value
2018-12-06T00:00:20.046Z,16.40
2018-12-06T00:04:28.286Z,16.47
2018-12-06T00:08:36.610Z,13.53
2018-12-06T00:12:44.913Z,16.63
2018-12-06T00:16:56.505Z,19.07
2018-12-06T00:21:04.791Z,15.87
2018-12-06T00:25:13.058Z,20.33
2018-12-06T00:29:21.374Z,22.23
2018-12-06T00:33:29.629Z,25.53
2018-12-06T00:37:37.681Z,21.97
2018-12-06T00:41:45.979Z,25.00
2018-12-06T00:45:54.257Z,23.80
2018-12-06T00:50:02.583Z,23.30
2018-12-06T00:54:10.874Z,19.87
2018-12-06T00:58:19.154Z,19.37
2018-12-06T01:02:27.440Z,19.70
2018-12-06T01:06:35.729Z,19.57
2018-12-06T01:10:43.996Z,19.13
2018-12-06T01:14:52.295Z,25.40
2018-12-06T01:19:00.658Z,18.00
2018-12-06T01:23:08.975Z,15.05
2018-12-06T01:27:17.295Z,21.70
2018-12-06T01:31:25.561Z,19.20
2018-12-06T01:35:33.882Z,18.60
2018-12-06T01:39:42.157Z,17.90
2018-12-06T01:43:50.465Z,21.87
2018-12-06T01:47:58.724Z,18.47
2018-12-06T01:52:07.063Z,20.10
2018-12-06T01:56:15.381Z,22.03
2018-12-06T02:00:23.674Z,22.33
2018-12-06T02:04:31.955Z,19.63
2018-12-06T02:08:40.277Z,18.90
2018-12-06T02:12:48.544Z,21.97
2018-12-06T02:16:56.815Z,17.83
2018-12-06T02:21:05.065Z,19.90
2018-12-06T02:25:13.369Z,17.47
2018-12-06T02:29:21.769Z,22.73
2018-12-06T02:33:30.044Z,20.77
2018-12-06T02:37:38.342Z,17.77
2018-12-06T02:41:46.695Z,16.23
2018-12-06T02:45:54.968Z,18.40
2018-12-06T02:50:03.247Z,18.48
2018-12-06T02:54:11.513Z,21.60
2018-12-06T02:58:19.786Z,22.77
2018-12-06T03:02:28.112Z,23.17
2018-12-06T03:06:36.406Z,23.83
2018-12-06T03:10:44.730Z,28.30
2018-12-06T03:14:53.029Z,23.67
2018-12-06T03:19:01.255Z,20.07
2018-12-06T03:23:09.522Z,23.67
2018-12-06T03:27:17.821Z,25.23
2018-12-06T03:31:26.203Z,22.43
2018-12-06T03:35:34.386Z,22.40
2018-12-06T03:39:42.644Z,22.27
2018-12-06T03:43:50.965Z,17.70
2018-12-06T03:47:59.260Z,21.27
2018-12-06T03:52:07.542Z,23.40
2018-12-06T03:56:15.818Z,22.30
2018-12-06T04:00:24.137Z,20.80
2018-12-06T04:04:32.412Z,17.67
2018-12-06T04:08:40.745Z,24.60
2018-12-06T04:12:49.104Z,20.70
2018-12-06T04:16:57.477Z,18.70
2018-12-06T04:21:05.747Z,20.73
2018-12-06T04:25:14.021Z,26.00
2018-12-06T04:29:22.387Z,18.77
2018-12-06T04:33:30.643Z,19.47
2018-12-06T04:37:38.965Z,20.00
2018-12-06T04:41:47.304Z,22.47
2018-12-06T04:45:55.586Z,20.57
2018-12-06T04:50:03.867Z,21.47
2018-12-06T04:54:12.118Z,19.52
2018-12-06T04:58:20.423Z,23.13
2018-12-06T05:02:28.719Z,20.23
2018-12-06T05:06:37.018Z,21.97
2018-12-06T05:10:45.407Z,21.30
2018-12-06T05:14:53.678Z,24.97
2018-12-06T05:19:01.959Z,19.43
2018-12-06T05:23:10.253Z,20.67
2018-12-06T05:27:18.555Z,22.63
2018-12-06T05:31:26.799Z,20.40
2018-12-06T05:35:35.086Z,19.47
2018-12-06T05:39:43.365Z,19.37
2018-12-06T05:43:51.699Z,22.23
2018-12-06T05:48:00.006Z,19.60
2018-12-06T05:52:08.287Z,20.40
2018-12-06T05:56:16.585Z,21.60
2018-12-06T06:00:24.869Z,22.40
2018-12-06T06:04:33.145Z,18.30
2018-12-06T06:08:41.446Z,21.30
2018-12-06T06:12:49.737Z,22.13
2018-12-06T06:16:58.042Z,19.17
2018-12-06T06:21:06.283Z,24.43
2018-12-06T06:25:14.573Z,22.57
2018-12-06T06:29:22.804Z,20.30
2018-12-06T06:33:31.090Z,21.50
2018-12-06T06:37:39.122Z,19.70
2018-12-06T06:41:47.382Z,18.20
2018-12-06T06:45:55.614Z,19.47
2018-12-06T06:50:03.993Z,19.07
2018-12-06T06:54:12.305Z,23.17
2018-12-06T06:58:20.608Z,17.00
2018-12-06T07:02:28.885Z,21.97
2018-12-06T07:06:37.178Z,22.13
2018-12-06T07:10:47.242Z,16.53
2018-12-06T07:14:53.771Z,19.03
2018-12-06T07:19:02.101Z,22.10
2018-12-06T07:23:10.354Z,16.43
2018-12-06T07:27:18.688Z,17.23
2018-12-06T07:31:26.957Z,18.97
2018-12-06T07:35:35.244Z,20.63
2018-12-06T07:39:43.475Z,20.23
2018-12-06T07:43:51.764Z,19.60
2018-12-06T07:48:00.042Z,21.30
2018-12-06T07:52:08.351Z,20.53
2018-12-06T07:56:16.646Z,18.17
2018-12-06T08:00:24.929Z,17.40
2018-12-06T08:04:33.212Z,26.13
2018-12-06T08:08:41.457Z,25.10
2018-12-06T08:12:49.505Z,21.60
2018-12-06T08:16:57.788Z,20.97
2018-12-06T08:21:06.090Z,31.47
2018-12-06T08:25:16.355Z,36.60
2018-12-06T08:29:23.019Z,30.40
2018-12-06T08:33:31.334Z,28.57
2018-12-06T08:37:39.614Z,34.03
2018-12-06T08:41:47.886Z,35.57
2018-12-06T08:45:56.175Z,37.37
2018-12-06T08:50:04.438Z,32.67
2018-12-06T08:54:12.706Z,31.37
2018-12-06T08:58:20.993Z,40.40
2018-12-06T09:02:29.314Z,33.70
2018-12-06T09:06:37.622Z,42.83
2018-12-06T09:10:51.536Z,35.63
2018-12-06T09:14:54.283Z,37.27
2018-12-06T09:19:02.594Z,38.97
2018-12-06T09:23:10.873Z,48.40
2018-12-06T09:27:19.211Z,38.50
2018-12-06T09:31:27.506Z,36.77
2018-12-06T09:35:35.999Z,41.17
2018-12-06T09:39:55.589Z,35.17
2018-12-06T09:44:04.067Z,47.10
2018-12-06T09:48:12.321Z,37.23
2018-12-06T09:52:20.608Z,37.33
2018-12-06T09:56:28.928Z,38.10
2018-12-06T10:00:37.215Z,35.17
2018-12-06T10:04:45.493Z,36.50
2018-12-06T10:08:53.758Z,32.10
2018-12-06T10:13:02.037Z,36.53
2018-12-06T10:17:10.302Z,32.27
2018-12-06T10:21:18.562Z,40.73
2018-12-06T10:25:26.919Z,33.60
2018-12-06T10:29:37.141Z,32.30
2018-12-06T10:33:46.332Z,42.03
2018-12-06T10:37:54.728Z,39.67
2018-12-06T10:42:03.205Z,31.50
2018-12-06T10:46:11.598Z,34.17
2018-12-06T10:50:19.894Z,29.23
2018-12-06T10:54:28.196Z,34.23
2018-12-06T10:58:36.489Z,30.23
2018-12-06T11:02:48.770Z,26.03
2018-12-06T11:06:57.060Z,28.70
2018-12-06T11:11:05.349Z,20.27
2018-12-06T11:15:13.668Z,26.60
2018-12-06T11:19:22.052Z,25.07
2018-12-06T11:23:30.367Z,25.03
2018-12-06T11:27:38.680Z,26.47
2018-12-06T11:31:46.970Z,23.40
2018-12-06T11:35:55.258Z,22.63
2018-12-06T11:40:03.558Z,20.50
2018-12-06T11:44:11.822Z,22.30
2018-12-06T11:48:26.702Z,24.17
2018-12-06T11:52:28.442Z,21.20
2018-12-06T11:56:36.733Z,20.37
2018-12-06T12:00:45.024Z,26.53
2018-12-06T12:04:53.285Z,22.43
2018-12-06T12:09:01.580Z,19.20
2018-12-06T12:13:09.841Z,37.13
2018-12-06T12:17:18.169Z,23.27
2018-12-06T12:21:26.458Z,23.87
2018-12-06T12:25:34.761Z,20.70
2018-12-06T12:29:43.045Z,22.40
2018-12-06T12:33:51.311Z,13.27
2018-12-06T12:37:59.580Z,15.20
2018-12-06T12:42:07.881Z,20.70
2018-12-06T12:46:17.085Z,20.07
2018-12-06T12:50:24.215Z,13.73
2018-12-06T12:54:32.498Z,13.80
2018-12-06T12:58:40.860Z,17.43
2018-12-06T13:02:48.934Z,15.20
2018-12-06T13:07:02.605Z,17.23
2018-12-06T13:11:10.884Z,13.40
2018-12-06T13:15:19.168Z,21.53
2018-12-06T13:19:27.431Z,16.27
2018-12-06T13:23:36.605Z,20.30
2018-12-06T13:27:44.022Z,19.63
2018-12-06T13:31:52.315Z,21.10
2018-12-06T13:36:00.569Z,22.87
2018-12-06T13:40:08.872Z,22.20
2018-12-06T13:44:17.202Z,16.13
2018-12-06T13:48:25.515Z,23.30
2018-12-06T13:52:33.841Z,19.50
2018-12-06T13:56:42.106Z,26.43
2018-12-06T14:00:50.639Z,18.53
2018-12-06T14:04:58.908Z,17.57
2018-12-06T14:09:07.634Z,20.57
2018-12-06T14:13:23.462Z,20.63
2018-12-06T14:17:24.264Z,18.60
2018-12-06T14:21:32.567Z,22.67
2018-12-06T14:25:40.989Z,25.13
2018-12-06T14:29:49.238Z,23.23
2018-12-06T14:33:57.543Z,18.93
2018-12-06T14:38:05.796Z,18.07
2018-12-06T14:42:14.154Z,17.90
2018-12-06T14:46:22.432Z,19.60
2018-12-06T14:50:30.751Z,24.67
2018-12-06T14:54:39.020Z,19.50
2018-12-06T14:58:47.334Z,17.73
2018-12-06T15:02:55.581Z,24.90
2018-12-06T15:07:03.851Z,18.02
2018-12-06T15:11:12.140Z,19.67
2018-12-06T15:15:20.451Z,17.10
2018-12-06T15:19:29.793Z,18.80
2018-12-06T15:23:38.060Z,17.73
2018-12-06T15:27:46.357Z,14.33
2018-12-06T15:31:54.635Z,23.53
2018-12-06T15:36:02.903Z,16.50
2018-12-06T15:40:11.259Z,26.13
2018-12-06T15:44:19.521Z,14.70
2018-12-06T15:48:27.820Z,11.80
2018-12-06T15:52:36.067Z,15.60
2018-12-06T15:56:44.393Z,21.97
2018-12-06T16:00:52.674Z,13.73
2018-12-06T16:05:00.974Z,13.37
2018-12-06T16:09:09.277Z,16.20
2018-12-06T16:13:17.585Z,21.30
2018-12-06T16:17:25.891Z,16.40
2018-12-06T16:21:34.178Z,18.57
2018-12-06T16:25:42.451Z,13.03
2018-12-06T16:29:51.616Z,13.80
2018-12-06T16:33:59.039Z,13.37
2018-12-06T16:38:07.366Z,14.93
2018-12-06T16:42:15.608Z,12.23
2018-12-06T16:46:23.848Z,14.63
2018-12-06T16:50:31.869Z,19.53
2018-12-06T16:54:40.135Z,12.77
2018-12-06T16:58:48.399Z,14.33
2018-12-06T17:02:56.734Z,18.53
2018-12-06T17:07:05.010Z,15.23
2018-12-06T17:11:13.281Z,14.17
2018-12-06T17:15:21.631Z,13.00
2018-12-06T17:19:29.931Z,16.20
2018-12-06T17:23:38.203Z,15.07
2018-12-06T17:27:46.549Z,11.87
2018-12-06T17:31:55.051Z,17.17
2018-12-06T17:36:03.518Z,12.40
2018-12-06T17:40:11.779Z,12.57
2018-12-06T17:44:20.055Z,17.43
2018-12-06T17:48:28.371Z,12.20
2018-12-06T17:52:36.708Z,13.40
2018-12-06T17:56:45.160Z,14.03
2018-12-06T18:00:53.450Z,14.85
2018-12-06T18:05:02.848Z,14.10
2018-12-06T18:09:11.274Z,11.53
2018-12-06T18:13:19.636Z,11.13
2018-12-06T18:17:27.887Z,12.27
2018-12-06T18:21:36.206Z,10.03
2018-12-06T18:25:44.590Z,12.90
2018-12-06T18:29:52.864Z,11.60
2018-12-06T18:34:01.145Z,14.17
2018-12-06T18:38:09.397Z,10.30
2018-12-06T18:42:17.902Z,11.07
2018-12-06T18:46:26.130Z,10.30
2018-12-06T18:50:34.420Z,9.30
2018-12-06T18:54:42.637Z,10.17
2018-12-06T18:58:50.930Z,11.18
2018-12-06T19:02:59.220Z,12.13
2018-12-06T19:07:07.491Z,13.17
2018-12-06T19:11:15.782Z,11.60
2018-12-06T19:15:24.012Z,10.53
2018-12-06T19:19:32.063Z,15.60
2018-12-06T19:23:40.369Z,11.60
2018-12-06T19:27:48.634Z,15.67
2018-12-06T19:31:56.961Z,12.60
2018-12-06T19:36:05.214Z,13.30
2018-12-06T19:40:13.530Z,12.17
2018-12-06T19:44:21.819Z,15.07
2018-12-06T19:48:30.110Z,13.20
2018-12-06T19:52:38.403Z,14.60
2018-12-06T19:56:46.700Z,15.70
2018-12-06T20:00:54.969Z,13.87
2018-12-06T20:05:03.253Z,13.73
2018-12-06T20:09:11.557Z,13.00
2018-12-06T20:13:19.858Z,16.93
2018-12-06T20:17:28.265Z,11.73
2018-12-06T20:21:36.514Z,14.10
2018-12-06T20:25:44.821Z,12.15
2018-12-06T20:29:53.127Z,13.87
2018-12-06T20:34:01.433Z,21.53
2018-12-06T20:38:09.695Z,13.07
2018-12-06T20:42:17.985Z,18.30
2018-12-06T20:46:26.272Z,12.60
2018-12-06T20:50:34.581Z,16.87
2018-12-06T20:54:42.924Z,18.70
2018-12-06T20:58:51.231Z,15.63
2018-12-06T21:02:59.570Z,15.57
2018-12-06T21:07:07.871Z,14.38
2018-12-06T21:11:16.313Z,14.70
2018-12-06T21:15:24.675Z,15.10
2018-12-06T21:19:33.012Z,14.50
2018-12-06T21:23:41.319Z,16.13
2018-12-06T21:27:51.683Z,16.23
2018-12-06T21:31:59.966Z,12.90
2018-12-06T21:36:08.246Z,14.57
2018-12-06T21:40:16.522Z,13.23
2018-12-06T21:44:24.871Z,15.50
2018-12-06T21:48:33.191Z,14.37
2018-12-06T21:52:41.476Z,18.20
2018-12-06T21:56:49.755Z,13.50
2018-12-06T22:00:58.038Z,13.43
2018-12-06T22:05:06.494Z,13.03
2018-12-06T22:09:14.828Z,16.50
2018-12-06T22:13:23.183Z,15.67
2018-12-06T22:17:31.478Z,11.27
2018-12-06T22:21:39.786Z,13.60
2018-12-06T22:25:48.080Z,13.03
2018-12-06T22:29:56.400Z,13.97
2018-12-06T22:34:04.662Z,16.13
2018-12-06T22:38:13.018Z,14.90
2018-12-06T22:42:21.318Z,11.10
2018-12-06T22:46:29.578Z,12.80
2018-12-06T22:50:37.898Z,9.37
2018-12-06T22:54:46.170Z,9.77
2018-12-06T22:58:54.491Z,13.40
2018-12-06T23:03:02.798Z,10.03
2018-12-06T23:07:11.080Z,10.97
2018-12-06T23:11:19.418Z,12.60
2018-12-06T23:15:27.760Z,12.47
2018-12-06T23:19:36.057Z,10.35
2018-12-06T23:23:44.316Z,13.37
2018-12-06T23:27:52.375Z,8.87
2018-12-06T23:32:00.674Z,10.53
2018-12-06T23:36:08.982Z,11.33
2018-12-06T23:40:17.277Z,11.50
2018-12-06T23:44:25.561Z,8.10
2018-12-06T23:48:33.937Z,14.63
2018-12-06T23:52:42.210Z,7.60
2018-12-06T23:56:50.571Z,11.90
